Time;durP1;ratioP1;P1;durP2;ratioP2;P2;SDS_P1;SDS_P2;PMS_P1;PMS_P2;Temp;Humidity;BMP_temperature;BMP_pressure;BME280_temperature;BME280_humidity;BME280_pressure;Samples;Min_cycle;Max_cycle;Signal;HPM_P1;HPM_P2
2022/02/05 00:01:35;;;;;;;;;;;;;;;7.65;61.95;99284.38;4932556;28;96892;-76
2022/02/05 00:04:06;;;;;;;4.13;2.10;;;;;;;7.64;61.89;99293.13;4918621;28;96800;-76
2022/02/05 00:06:36;;;;;;;5.70;2.33;;;;;;;7.62;61.60;99282.75;4917190;28;100876;-76
2022/02/05 00:12:13;;;;;;;3.60;1.80;;;;;;;7.64;61.54;99283.53;4902731;28;96825;-76
2022/02/05 00:41:27;;;;;;;3.37;1.60;;;;;;;7.85;60.63;99291.44;4955035;28;101458;-75
2022/02/05 00:44:03;;;;;;;1.73;1.30;;;;;;;7.71;60.93;99298.06;4955435;28;97027;-78
2022/02/05 00:46:35;;;;;;;2.40;1.30;;;;;;;7.69;61.09;99293.81;4955607;28;96667;-75
2022/02/05 00:49:01;;;;;;;2.47;1.40;;;;;;;7.68;61.29;99308.66;4970319;28;97628;-75
2022/02/05 00:51:35;;;;;;;3.13;1.60;;;;;;;7.72;61.28;99304.16;4915789;28;100621;-75
2022/02/05 00:54:14;;;;;;;2.00;1.30;;;;;;;7.70;60.45;99274.63;4915876;28;97108;-74
2022/02/05 00:59:16;;;;;;;3.33;1.50;;;;;;;7.74;60.80;99299.72;4931842;28;100764;-75
2022/02/05 01:01:42;;;;;;;3.70;1.75;;;;;;;7.67;60.87;99283.41;4932637;28;97331;-75
2022/02/05 01:04:07;;;;;;;2.88;1.60;;;;;;;7.78;61.19;99309.13;4915825;28;96982;-76
2022/02/05 01:06:33;;;;;;;2.95;1.65;;;;;;;7.59;61.45;99287.22;4942211;28;97184;-75
2022/02/05 01:09:01;;;;;;;2.47;1.63;;;;;;;7.72;61.11;99328.50;4938305;28;97402;-75
2022/02/05 01:11:27;;;;;;;3.20;1.83;;;;;;;7.76;61.51;99321.41;4954628;28;101352;-77
2022/02/05 01:13:55;;;;;;;3.58;1.60;;;;;;;7.75;61.06;99332.78;4937982;28;96594;-76
2022/02/05 01:16:49;;;;;;;2.83;1.70;;;;;;;7.77;61.32;99327.50;4938675;28;96719;-75
2022/02/05 01:20:00;;;;;;;2.28;1.52;;;;;;;7.79;61.20;99321.28;4954240;28;101525;-75
2022/02/05 01:22:02;;;;;;;3.35;1.77;;;;;;;7.76;61.27;99337.06;4953063;28;101372;-76
2022/02/05 01:24:29;;;;;;;2.23;1.40;;;;;;;7.72;61.08;99349.41;4953357;28;97668;-75
2022/02/05 01:27:04;;;;;;;1.87;1.20;;;;;;;7.59;60.90;99353.41;4970772;28;96841;-75
2022/02/05 01:32:05;;;;;;;1.38;0.98;;;;;;;7.69;62.61;99401.78;4969792;28;97935;-76
2022/02/05 01:34:41;;;;;;;1.60;0.60;;;;;;;7.64;62.89;99401.06;4953883;28;96625;-76
2022/02/05 01:56:10;;;;;;;1.57;0.47;;;;;;;7.33;61.29;99426.56;4954511;28;97001;-75
2022/02/05 02:11:53;;;;;;;0.50;0.30;;;;;;;7.25;58.44;99503.41;4968289;28;98550;-75
2022/02/05 02:25:12;;;;;;;0.38;0.30;;;;;;;7.04;58.16;99558.94;4953588;28;100951;-75
2022/02/05 02:28:35;;;;;;;0.63;0.30;;;;;;;6.94;57.83;99550.53;4967162;28;96699;-75
2022/02/05 02:30:27;;;;;;;0.67;0.30;;;;;;;6.86;57.72;99559.50;4933258;28;97801;-75
2022/02/05 02:33:04;;;;;;;0.40;0.27;;;;;;;6.91;58.25;99566.28;4938115;28;97544;-75
2022/02/05 02:35:31;;;;;;;0.43;0.40;;;;;;;6.92;58.00;99569.72;4938573;28;101625;-75
2022/02/05 02:38:10;;;;;;;0.33;0.30;;;;;;;6.84;57.79;99559.56;4934829;28;97236;-76
2022/02/05 02:43:10;;;;;;;0.53;0.20;;;;;;;6.87;57.07;99572.50;4936787;28;101528;-75
2022/02/05 02:45:36;;;;;;;0.70;0.50;;;;;;;6.76;57.02;99571.97;4955984;28;101155;-75
2022/02/05 02:48:02;;;;;;;0.27;0.27;;;;;;;6.74;57.43;99587.66;4973034;28;96770;-76
2022/02/05 02:50:33;;;;;;;0.63;0.40;;;;;;;6.69;57.21;99599.13;4955474;28;96807;-75
2022/02/05 02:58:31;;;;;;;0.63;0.47;;;;;;;6.60;57.80;99615.91;4971287;28;96644;-75
2022/02/05 03:00:59;;;;;;;0.57;0.43;;;;;;;6.49;58.30;99631.88;4972984;28;97127;-79
2022/02/05 03:03:28;;;;;;;0.60;0.27;;;;;;;6.46;59.10;99637.16;4940775;28;97787;-75
2022/02/05 03:05:54;;;;;;;0.90;0.30;;;;;;;6.46;58.92;99638.94;4937754;28;101742;-75
2022/02/05 03:08:19;;;;;;;0.60;0.33;;;;;;;6.51;58.67;99661.34;4956511;28;96713;-75
2022/02/05 03:10:45;;;;;;;0.47;0.40;;;;;;;6.41;58.90;99651.22;4940538;28;96984;-75
2022/02/05 03:13:11;;;;;;;0.87;0.57;;;;;;;6.49;58.49;99664.91;4956281;28;97441;-75
2022/02/05 03:15:39;;;;;;;2.43;0.50;;;;;;;6.47;58.21;99662.34;4972976;28;97837;-75
2022/02/05 03:18:09;;;;;;;1.27;0.43;;;;;;;6.49;58.11;99676.19;4939986;28;96760;-76
2022/02/05 03:20:35;;;;;;;0.70;0.40;;;;;;;6.40;58.63;99680.78;4955374;28;96784;-75
2022/02/05 03:23:01;;;;;;;1.63;0.43;;;;;;;6.32;58.33;99660.16;4939093;28;101616;-75
2022/02/05 03:25:31;;;;;;;0.73;0.30;;;;;;;6.40;58.08;99697.31;4923788;28;101597;-75
2022/02/05 03:27:57;;;;;;;1.03;0.43;;;;;;;6.36;57.90;99680.03;4956465;28;96661;-78
2022/02/05 03:30:23;;;;;;;0.30;0.20;;;;;;;6.34;58.33;99687.00;4940300;28;96825;-75
2022/02/05 03:32:49;;;;;;;0.50;0.40;;;;;;;6.49;57.91;99712.69;4939566;28;101437;-76
2022/02/05 03:35:15;;;;;;;0.43;0.37;;;;;;;6.50;58.17;99711.78;4955358;28;101567;-75
2022/02/05 03:37:41;;;;;;;1.17;0.40;;;;;;;6.45;58.31;99726.69;4955462;28;96635;-75
2022/02/05 03:40:07;;;;;;;0.37;0.30;;;;;;;6.39;58.08;99736.44;4923596;28;96828;-76
2022/02/05 03:42:34;;;;;;;0.90;0.60;;;;;;;6.36;58.26;99747.81;4956562;28;97430;-75
2022/02/05 03:45:00;;;;;;;1.53;0.30;;;;;;;6.34;57.97;99740.03;4939595;28;97448;-75
2022/02/05 03:47:30;;;;;;;0.30;0.30;;;;;;;6.33;58.38;99751.34;4956554;28;97245;-75
2022/02/05 03:49:56;;;;;;;1.10;0.37;;;;;;;6.19;58.57;99722.16;4956586;28;98105;-77
2022/02/05 03:52:21;;;;;;;0.47;0.30;;;;;;;6.34;58.43;99752.19;4934814;28;101601;-75
2022/02/05 03:54:47;;;;;;;2.33;0.57;;;;;;;6.35;58.32;99751.31;4955868;28;101561;-76
2022/02/05 03:57:13;;;;;;;0.73;0.40;;;;;;;6.35;58.84;99765.19;4955045;28;97058;-75
2022/02/05 03:59:38;;;;;;;0.80;0.50;;;;;;;6.34;58.76;99778.25;4956316;28;96845;-76
2022/02/05 04:02:04;;;;;;;0.40;0.40;;;;;;;6.25;59.11;99774.13;4955106;28;101216;-75
2022/02/05 04:04:30;;;;;;;0.90;0.40;;;;;;;6.10;59.51;99756.28;4939486;28;100987;-75
2022/02/05 04:06:55;;;;;;;0.70;0.43;;;;;;;6.08;59.80;99777.19;4970141;28;96861;-75
2022/02/05 04:09:27;;;;;;;1.47;0.43;;;;;;;6.07;59.33;99770.22;4972183;28;96790;-75
2022/02/05 04:17:31;;;;;;;3.17;0.83;;;;;;;5.99;59.93;99793.03;4954744;28;96697;-75
2022/02/05 04:19:57;;;;;;;1.23;0.70;;;;;;;6.07;59.82;99819.75;4956257;28;97132;-75
2022/02/05 04:22:22;;;;;;;0.90;0.60;;;;;;;6.06;59.89;99838.03;4953756;28;101405;-76
2022/02/05 04:24:48;;;;;;;1.03;0.47;;;;;;;6.01;60.81;99819.91;4954260;28;97885;-75
2022/02/05 04:27:14;;;;;;;1.70;0.67;;;;;;;5.88;60.78;99816.69;4954975;28;96928;-76
2022/02/05 04:29:39;;;;;;;2.23;0.50;;;;;;;5.99;60.71;99839.06;4956120;28;96946;-75
2022/02/05 04:32:06;;;;;;;0.60;0.50;;;;;;;5.97;60.90;99846.94;4938150;28;101007;-75
2022/02/05 04:34:31;;;;;;;1.37;0.87;;;;;;;6.00;61.12;99843.41;4955061;28;101405;-77
2022/02/05 04:36:59;;;;;;;2.40;0.80;;;;;;;6.09;61.15;99853.59;4971985;28;96592;-75
2022/02/05 04:39:25;;;;;;;0.80;0.60;;;;;;;6.08;60.99;99865.78;4955283;28;96787;-76
2022/02/05 04:41:57;;;;;;;5.03;0.90;;;;;;;6.05;61.13;99865.84;4954054;28;97233;-75
2022/02/05 04:44:43;;;;;;;3.50;0.90;;;;;;;6.03;60.74;99852.00;4953155;28;97995;-76
2022/02/05 04:57:41;;;;;;;2.25;1.20;;;;;;;6.03;60.93;99875.44;4968837;28;97342;-75
2022/02/05 05:02:54;;;;;;;1.90;0.80;;;;;;;6.01;60.87;99887.63;4954712;28;97368;-76
2022/02/05 05:08:27;;;;;;;3.83;1.00;;;;;;;5.99;60.64;99885.94;4957739;28;97066;-76
2022/02/05 05:13:33;;;;;;;2.43;0.90;;;;;;;5.99;60.16;99909.41;4973839;28;98611;-75
2022/02/05 05:21:09;;;;;;;3.60;1.03;;;;;;;6.00;59.78;99911.13;4953364;28;97199;-75
2022/02/05 05:23:35;;;;;;;4.43;1.20;;;;;;;6.00;59.58;99913.75;4939020;28;101297;-75
2022/02/05 05:26:00;;;;;;;4.47;1.23;;;;;;;5.97;59.34;99900.78;4938656;28;101456;-80
2022/02/05 05:28:26;;;;;;;4.57;1.50;;;;;;;5.94;59.32;99899.09;4955216;28;96678;-77
2022/02/05 05:30:52;;;;;;;5.00;1.20;;;;;;;5.97;59.51;99896.44;4955758;28;96874;-75
2022/02/05 05:33:17;;;;;;;7.33;1.77;;;;;;;6.02;59.05;99901.53;4954933;28;98124;-75
2022/02/05 05:35:43;;;;;;;4.20;1.43;;;;;;;5.79;59.43;99882.03;4952829;28;101344;-75
2022/02/05 05:38:08;;;;;;;7.57;1.97;;;;;;;5.93;59.09;99920.81;4954832;28;97077;-75
2022/02/05 05:40:36;;;;;;;10.87;2.63;;;;;;;5.91;59.14;99906.94;4955800;28;96741;-76
2022/02/05 05:43:05;;;;;;;12.67;3.30;;;;;;;5.93;58.93;99923.41;4954616;28;101143;-78
2022/02/05 05:48:16;;;;;;;10.37;2.13;;;;;;;5.93;58.53;99917.31;4941013;28;97244;-76
2022/02/05 05:53:10;;;;;;;7.20;2.20;;;;;;;5.66;58.66;99897.03;4935245;28;100703;-75
2022/02/05 05:55:38;;;;;;;9.73;1.97;;;;;;;5.97;58.38;99938.13;4938882;28;97311;-75
2022/02/05 05:58:04;;;;;;;9.03;2.20;;;;;;;5.93;58.27;99939.06;4938275;28;96715;-75
2022/02/05 06:00:29;;;;;;;8.13;1.57;;;;;;;5.96;58.14;99936.38;4938598;28;96857;-75
2022/02/05 06:02:55;;;;;;;4.73;1.67;;;;;;;6.01;58.31;99937.16;4971103;28;101320;-75
2022/02/05 06:05:21;;;;;;;5.13;1.60;;;;;;;5.98;58.05;99962.41;4969831;28;100998;-75
2022/02/05 06:07:46;;;;;;;9.17;1.90;;;;;;;6.00;58.52;99961.50;4971129;28;97128;-77
2022/02/05 06:10:12;;;;;;;8.87;2.60;;;;;;;5.97;58.53;99961.56;4943875;28;97909;-75
2022/02/05 06:12:37;;;;;;;9.50;2.37;;;;;;;6.00;58.44;99971.06;4928216;28;98631;-76
2022/02/05 06:15:06;;;;;;;4.50;1.50;;;;;;;5.88;58.07;99951.31;4934722;28;101707;-79
2022/02/05 06:17:32;;;;;;;6.07;2.00;;;;;;;6.02;58.48;99980.56;4935121;28;97911;-75
2022/02/05 06:19:58;;;;;;;4.57;1.70;;;;;;;6.02;58.39;99977.97;4935068;28;97545;-76
2022/02/05 06:22:24;;;;;;;6.67;1.87;;;;;;;5.96;58.45;99985.03;4934894;28;101008;-75
2022/02/05 06:24:49;;;;;;;6.77;2.50;;;;;;;5.97;58.17;99978.94;4949927;28;101762;-76
2022/02/05 06:27:14;;;;;;;4.83;1.63;;;;;;;5.97;58.47;99989.38;4934652;28;97173;-75
2022/02/05 06:29:40;;;;;;;5.13;1.53;;;;;;;6.01;58.15;99981.44;4951793;28;96703;-75
2022/02/05 06:32:06;;;;;;;9.13;1.90;;;;;;;5.96;58.37;99987.63;4934564;28;100886;-75
2022/02/05 06:34:32;;;;;;;8.67;1.70;;;;;;;5.86;58.13;99968.72;4935510;28;97927;-75
2022/02/05 06:36:58;;;;;;;5.57;1.50;;;;;;;5.92;58.03;99983.34;4951057;28;97248;-76
2022/02/05 06:39:24;;;;;;;5.33;1.97;;;;;;;6.01;57.88;99998.84;4918709;28;97319;-75
2022/02/05 06:41:50;;;;;;;6.47;1.80;;;;;;;6.01;58.08;99996.22;4934572;28;101387;-77
2022/02/05 06:44:16;;;;;;;9.20;1.93;;;;;;;6.06;57.87;99999.59;4934180;28;101122;-75
2022/02/05 06:46:42;;;;;;;6.33;2.13;;;;;;;6.09;57.89;99995.19;4933843;28;97132;-79
2022/02/05 06:49:08;;;;;;;7.63;2.07;;;;;;;5.90;57.49;99983.38;4917972;28;96962;-76
2022/02/05 06:51:34;;;;;;;4.67;1.70;;;;;;;6.07;57.29;100001.31;4934147;28;100959;-75
2022/02/05 06:54:00;;;;;;;6.30;1.60;;;;;;;6.07;57.61;100004.75;4935149;28;101083;-75
2022/02/05 06:56:26;;;;;;;6.60;2.23;;;;;;;6.03;57.32;100008.34;4941369;28;96699;-75
2022/02/05 06:58:51;;;;;;;3.53;1.47;;;;;;;5.90;57.06;99981.66;4918192;28;96827;-75
2022/02/05 07:01:17;;;;;;;6.07;1.83;;;;;;;6.03;57.43;100018.75;4916750;28;101360;-75
2022/02/05 07:03:43;;;;;;;8.73;2.43;;;;;;;6.02;57.25;100018.78;4934917;28;97294;-76
2022/02/05 07:06:08;;;;;;;6.40;1.70;;;;;;;5.86;56.81;99998.22;4904438;28;98270;-75
2022/02/05 07:08:34;;;;;;;7.90;2.13;;;;;;;6.03;56.87;100020.50;4952823;28;97206;-75
2022/02/05 07:11:00;;;;;;;6.13;1.40;;;;;;;5.94;56.63;100016.34;4955104;28;97513;-75
2022/02/05 07:13:25;;;;;;;4.80;1.87;;;;;;;5.93;56.63;100025.03;4970825;28;101069;-75
2022/02/05 07:18:30;;;;;;;7.23;1.50;;;;;;;5.98;56.73;100031.00;4926503;28;97257;-76
2022/02/05 07:21:07;;;;;;;6.33;2.23;;;;;;;5.99;57.24;100037.06;4931687;28;98313;-77
2022/02/05 07:29:14;;;;;;;5.07;1.67;;;;;;;5.87;56.46;100005.13;4948824;28;96999;-76
2022/02/05 07:31:48;;;;;;;4.90;1.93;;;;;;;6.03;56.73;100041.34;4933876;28;97532;-76
2022/02/05 07:34:15;;;;;;;6.50;2.00;;;;;;;6.10;56.59;100045.53;4933991;28;101199;-75
2022/02/05 07:36:41;;;;;;;6.93;2.00;;;;;;;6.13;56.55;100037.66;4950862;28;97116;-75
2022/02/05 07:39:07;;;;;;;7.83;1.60;;;;;;;5.84;56.31;99997.38;4936867;28;96910;-77
2022/02/05 07:41:33;;;;;;;5.90;1.87;;;;;;;5.90;56.64;100006.81;4918655;28;101793;-75
2022/02/05 07:43:59;;;;;;;4.47;2.10;;;;;;;6.23;56.58;100044.41;4929011;28;101708;-75
2022/02/05 07:46:25;;;;;;;5.13;2.17;;;;;;;6.24;56.02;100048.72;4911864;28;97178;-75
2022/02/05 07:48:50;;;;;;;11.00;2.83;;;;;;;6.24;55.97;100047.88;4932986;28;97079;-75
2022/02/05 07:51:16;;;;;;;6.87;1.83;;;;;;;6.74;55.30;100053.75;4934828;28;98546;-75
2022/02/05 07:53:41;;;;;;;5.77;1.60;;;;;;;7.14;54.52;100045.00;4936022;28;101302;-75
2022/02/05 07:56:07;;;;;;;7.33;2.20;;;;;;;6.94;54.86;100042.84;4909260;28;97290;-87
2022/02/05 07:58:34;;;;;;;6.13;1.90;;;;;;;6.85;54.13;100045.69;4932690;28;97018;-88
2022/02/05 08:01:03;;;;;;;8.13;2.17;;;;;;;6.80;54.91;100058.81;4934946;28;98580;-87
2022/02/05 08:03:29;;;;;;;4.97;2.00;;;;;;;6.55;54.81;100027.22;4922535;28;101271;-89
2022/02/05 08:05:58;;;;;;;8.63;2.00;;;;;;;6.71;55.13;100067.72;4928359;28;96851;-88
2022/02/05 08:08:26;;;;;;;7.23;1.60;;;;;;;6.60;55.30;100051.44;4934711;28;96903;-85
2022/02/05 08:10:58;;;;;;;6.70;1.90;;;;;;;6.64;55.19;100063.53;4919310;28;101231;-85
2022/02/05 08:13:30;;;;;;;;;;;;;;;6.60;55.17;100068.84;4936177;28;101612;-77
2022/02/05 08:15:59;;;;;;;7.47;1.48;;;;;;;6.49;55.25;100051.69;4935564;28;97065;-75
2022/02/05 08:18:25;;;;;;;11.53;2.17;;;;;;;6.56;55.14;100071.53;4951699;28;96777;-76
2022/02/05 08:20:50;;;;;;;3.90;1.60;;;;;;;6.54;55.52;100064.63;4950173;28;97735;-75
2022/02/05 08:23:16;;;;;;;4.70;1.50;;;;;;;6.54;55.46;100067.22;4920323;28;101635;-75
2022/02/05 08:25:41;;;;;;;6.57;2.43;;;;;;;6.50;55.80;100065.59;4954899;28;96891;-76
2022/02/05 08:28:07;;;;;;;7.27;2.03;;;;;;;6.49;55.78;100076.91;4969287;28;97934;-76
2022/02/05 08:30:33;;;;;;;8.23;1.87;;;;;;;6.50;55.58;100071.66;4954777;28;101590;-78
2022/02/05 08:32:59;;;;;;;7.60;1.70;;;;;;;6.54;56.01;100088.09;4940759;28;99709;-76
2022/02/05 08:35:25;;;;;;;4.53;1.83;;;;;;;6.51;55.81;100086.41;4939271;28;96779;-82
2022/02/05 08:37:52;;;;;;;8.40;1.77;;;;;;;6.47;55.80;100078.69;4941490;28;97020;-81
2022/02/05 08:40:18;;;;;;;9.73;2.10;;;;;;;6.43;55.87;100072.69;4940101;28;101497;-83
2022/02/05 08:42:44;;;;;;;10.60;1.97;;;;;;;6.55;56.23;100087.22;4938814;28;101271;-82
2022/02/05 08:45:10;;;;;;;7.13;2.10;;;;;;;6.60;55.60;100087.09;4973578;28;96682;-83
2022/02/05 08:47:36;;;;;;;7.27;2.00;;;;;;;6.58;55.33;100074.09;4957870;28;97050;-84
2022/02/05 08:50:02;;;;;;;8.33;2.00;;;;;;;6.64;55.49;100067.91;4972833;28;97538;-83
2022/02/05 08:52:28;;;;;;;4.00;1.57;;;;;;;6.61;55.46;100049.72;4956573;28;101250;-82
2022/02/05 08:54:54;;;;;;;4.93;1.63;;;;;;;6.57;55.27;100047.19;4939730;28;96973;-83
2022/02/05 08:57:20;;;;;;;15.30;2.20;;;;;;;6.71;55.08;100075.53;4939005;28;96926;-81
2022/02/05 09:00:11;;;;;;;4.67;1.83;;;;;;;6.51;54.99;100062.06;4956354;28;101073;-84
2022/02/05 09:05:42;;;;;;;7.73;1.90;;;;;;;6.66;55.15;100076.53;4956310;28;96810;-86
2022/02/05 09:07:52;;;;;;;5.13;1.92;;;;;;;6.71;55.41;100090.34;4971163;28;97218;-93
2022/02/05 09:15:33;;;;;;;6.80;2.30;;;;;;;6.71;54.83;100090.34;4955571;28;97202;-83
2022/02/05 09:17:59;;;;;;;7.23;1.80;;;;;;;6.67;55.48;100086.94;4973224;28;97040;-86
2022/02/05 09:20:26;;;;;;;9.23;2.30;;;;;;;6.87;55.11;100107.38;4955496;28;101272;-84
2022/02/05 09:22:53;;;;;;;10.57;2.53;;;;;;;6.83;55.06;100084.00;4923916;28;101941;-83
2022/02/05 09:25:21;;;;;;;8.73;2.00;;;;;;;6.90;54.70;100104.69;4971961;28;96714;-84
2022/02/05 09:27:47;;;;;;;6.47;2.17;;;;;;;6.90;54.91;100106.47;4956889;28;96873;-83
2022/02/05 09:30:16;;;;;;;5.27;2.03;;;;;;;6.95;54.97;100125.47;4937809;28;100072;-83
2022/02/05 09:32:42;;;;;;;7.23;2.03;;;;;;;6.73;54.62;100065.94;4938971;28;101174;-83
2022/02/05 09:35:10;;;;;;;7.37;1.87;;;;;;;6.87;54.25;100102.16;4927465;28;96925;-83
2022/02/05 09:37:36;;;;;;;7.30;1.70;;;;;;;6.83;54.03;100115.28;4934002;28;97381;-83
2022/02/05 09:40:02;;;;;;;6.63;2.07;;;;;;;6.67;54.56;100092.16;4917855;28;97924;-83
2022/02/05 09:42:28;;;;;;;8.20;2.07;;;;;;;6.78;54.79;100112.81;4917103;28;100016;-83
2022/02/05 09:44:54;;;;;;;5.10;1.90;;;;;;;6.77;54.07;100101.50;4905958;28;97370;-83
2022/02/05 09:47:22;;;;;;;6.60;1.80;;;;;;;6.93;54.19;100109.84;4912434;28;97566;-83
2022/02/05 09:49:50;;;;;;;6.00;1.90;;;;;;;7.10;53.91;100119.91;4916897;28;101734;-83
2022/02/05 09:52:24;;;;;;;6.13;2.10;;;;;;;7.14;54.00;100132.00;4917552;28;101704;-83
2022/02/05 09:54:50;;;;;;;6.73;1.83;;;;;;;7.05;53.99;100116.53;4917269;28;96859;-83
2022/02/05 09:57:15;;;;;;;5.80;2.57;;;;;;;7.02;53.61;100112.25;4950649;28;97309;-83
2022/02/05 09:59:45;;;;;;;7.63;2.27;;;;;;;7.03;53.47;100139.19;4932904;28;102195;-80
2022/02/05 10:02:32;;;;;;;9.93;1.73;;;;;;;7.06;53.44;100122.63;4933151;28;101019;-82
2022/02/05 10:05:15;;;;;;;5.50;1.70;;;;;;;7.46;52.55;100130.38;4918096;28;96834;-80
2022/02/05 10:07:53;;;;;;;7.10;2.03;;;;;;;7.37;52.71;100139.28;4916099;28;96842;-81
2022/02/05 10:10:19;;;;;;;10.23;1.83;;;;;;;7.29;52.82;100138.59;4930178;28;101800;-82
2022/02/05 10:12:44;;;;;;;6.93;1.50;;;;;;;7.07;53.11;100124.31;4936936;28;101659;-81
2022/02/05 10:15:11;;;;;;;5.47;1.80;;;;;;;7.01;52.58;100120.97;4950072;28;97150;-81
2022/02/05 10:17:43;;;;;;;6.10;1.60;;;;;;;6.95;53.05;100115.91;4902376;28;98433;-79
2022/02/05 10:20:12;;;;;;;5.00;1.90;;;;;;;6.95;53.22;100118.50;4927313;28;98043;-81
2022/02/05 10:22:39;;;;;;;6.13;2.03;;;;;;;7.06;53.41;100135.66;4920291;28;101568;-80
2022/02/05 10:25:14;;;;;;;6.00;1.97;;;;;;;7.09;52.96;100139.06;4919717;28;96771;-80
2022/02/05 10:27:42;;;;;;;9.33;2.30;;;;;;;7.09;53.13;100146.03;4947028;28;96909;-79
2022/02/05 10:30:22;;;;;;;6.20;2.13;;;;;;;6.99;53.00;100121.91;4945563;28;101110;-81
2022/02/05 10:32:58;;;;;;;3.73;1.73;;;;;;;7.05;53.49;100141.78;4927515;28;101144;-79
2022/02/05 10:35:37;;;;;;;6.00;1.90;;;;;;;7.10;53.15;100147.75;4917951;28;97401;-78
2022/02/05 10:43:07;;;;;;;5.47;1.83;;;;;;;6.94;53.29;100127.22;4972285;28;98266;-89
2022/02/05 10:45:40;;;;;;;7.17;2.97;;;;;;;7.17;53.28;100144.13;4938212;28;96725;-88
2022/02/05 10:48:06;;;;;;;7.63;1.97;;;;;;;7.31;52.79;100146.41;4954797;28;96887;-88
2022/02/05 10:50:36;;;;;;;5.33;2.03;;;;;;;7.32;52.59;100138.53;4936979;28;101624;-88
2022/02/05 10:53:17;;;;;;;5.03;1.80;;;;;;;7.34;52.61;100138.50;4951739;28;100378;-79
2022/02/05 10:58:23;;;;;;;4.73;2.13;;;;;;;7.05;54.35;100132.22;4931750;28;97506;-78
2022/02/05 11:06:00;;;;;;;7.07;1.65;;;;;;;6.97;55.18;100142.81;4931826;28;97307;-80
2022/02/05 11:08:27;;;;;;;6.80;1.70;;;;;;;7.05;54.69;100152.22;4931111;28;96936;-80
2022/02/05 11:11:21;;;;;;;5.83;1.80;;;;;;;7.00;54.10;100142.75;4928602;28;101027;-79
2022/02/05 11:16:55;;;;;;;5.60;2.17;;;;;;;6.94;55.49;100178.56;4930812;28;97443;-79
2022/02/05 11:19:21;;;;;;;8.57;3.00;;;;;;;7.08;56.38;100179.13;4919083;28;97859;-83
2022/02/05 11:21:47;;;;;;;11.33;5.90;;;;;;;7.25;56.18;100183.97;4933450;28;101315;-79
2022/02/05 11:24:13;;;;;;;6.27;2.90;;;;;;;7.39;56.38;100162.78;4915290;28;101021;-79
2022/02/05 11:26:38;;;;;;;3.70;1.90;;;;;;;7.27;56.42;100132.56;4924126;28;96789;-84
2022/02/05 11:29:05;;;;;;;5.07;2.00;;;;;;;7.42;55.45;100160.94;4916757;28;97069;-80
2022/02/05 11:31:38;;;;;;;4.53;1.77;;;;;;;7.56;55.43;100175.41;4933591;28;101305;-81
2022/02/05 11:34:35;;;;;;;6.23;1.73;;;;;;;7.60;54.68;100158.78;4946441;28;98075;-80
2022/02/05 11:37:03;;;;;;;8.33;1.83;;;;;;;7.71;54.89;100188.97;4940170;28;96875;-80
2022/02/05 11:39:28;;;;;;;5.97;2.03;;;;;;;7.61;55.44;100170.94;4939595;28;97187;-80
2022/02/05 11:41:56;;;;;;;3.40;1.93;;;;;;;7.65;55.96;100191.75;4943761;28;97899;-80
2022/02/05 11:44:22;;;;;;;6.90;2.03;;;;;;;7.67;56.18;100202.13;4910102;28;101597;-88
2022/02/05 11:47:06;;;;;;;4.63;2.22;;;;;;;7.63;56.12;100203.13;4933131;28;98056;-89
2022/02/05 11:49:53;;;;;;;5.27;2.00;;;;;;;7.61;56.02;100203.13;4917888;28;96963;-88
2022/02/05 11:52:37;;;;;;;4.60;1.80;;;;;;;7.63;55.75;100192.66;4915269;28;101172;-88
2022/02/05 11:55:09;;;;;;;4.05;1.73;;;;;;;7.53;55.61;100199.00;4932526;28;101651;-88
2022/02/05 11:57:46;;;;;;;2.70;1.65;;;;;;;7.39;56.17;100171.47;4936825;28;97278;-86
2022/02/05 12:00:22;;;;;;;3.07;1.50;;;;;;;7.49;56.07;100201.69;4947787;28;96846;-86
2022/02/05 12:05:30;;;;;;;6.50;1.70;;;;;;;7.37;55.39;100193.28;4947330;28;101571;-94
2022/02/05 12:08:05;;;;;;;7.30;2.28;;;;;;;7.05;55.76;100165.28;4947361;28;96711;-85
2022/02/05 12:10:35;;;;;;;5.13;1.57;;;;;;;7.17;55.77;100214.59;4927577;28;96880;-86
2022/02/05 12:13:26;;;;;;;4.07;1.63;;;;;;;7.10;56.69;100210.38;4949820;28;101324;-86
2022/02/05 12:15:54;;;;;;;9.40;1.90;;;;;;;7.04;56.46;100190.53;4933558;28;101636;-85
2022/02/05 12:18:24;;;;;;;5.67;1.77;;;;;;;7.19;56.40;100210.22;4949868;28;97347;-87
2022/02/05 12:20:54;;;;;;;6.00;1.70;;;;;;;7.17;56.36;100205.00;4954367;28;97038;-88
2022/02/05 12:23:42;;;;;;;4.27;1.93;;;;;;;7.11;56.92;100193.84;4946686;28;100897;-87
2022/02/05 12:26:08;;;;;;;3.90;1.60;;;;;;;7.26;56.58;100207.41;4913141;28;100694;-87
2022/02/05 12:28:38;;;;;;;6.83;2.03;;;;;;;7.21;56.05;100188.41;4937147;28;97248;-86
2022/02/05 12:31:16;;;;;;;2.97;1.70;;;;;;;7.29;55.91;100216.94;4934464;28;97378;-87
2022/02/05 12:33:54;;;;;;;5.10;2.23;;;;;;;7.29;56.34;100224.78;4930027;28;101360;-82
2022/02/05 12:36:29;;;;;;;5.93;2.30;;;;;;;7.33;56.10;100208.16;4931874;28;98025;-82
2022/02/05 12:38:56;;;;;;;5.87;2.10;;;;;;;7.29;56.09;100219.56;4932307;28;97244;-83
2022/02/05 12:41:22;;;;;;;6.13;1.90;;;;;;;7.21;55.85;100200.59;4932757;28;97299;-82
2022/02/05 12:43:53;;;;;;;6.10;2.10;;;;;;;7.21;55.36;100211.03;4918428;28;101470;-83
2022/02/05 12:46:34;;;;;;;8.73;3.27;;;;;;;7.09;55.29;100186.03;4918965;28;101005;-82
2022/02/05 12:49:04;;;;;;;4.63;1.87;;;;;;;7.12;54.98;100212.09;4936076;28;97999;-81
2022/02/05 12:51:31;;;;;;;5.57;2.07;;;;;;;6.97;54.96;100197.59;4939475;28;96870;-85
2022/02/05 12:54:07;;;;;;;11.07;1.67;;;;;;;6.98;54.76;100221.94;4921629;28;100565;-82
2022/02/05 12:56:37;;;;;;;4.20;1.50;;;;;;;7.06;54.77;100221.81;4931703;28;101443;-83
2022/02/05 12:59:07;;;;;;;8.37;1.80;;;;;;;7.09;55.23;100219.13;4932187;28;97174;-83
2022/02/05 13:01:39;;;;;;;5.93;1.80;;;;;;;7.05;55.69;100220.09;4916164;28;97259;-83
2022/02/05 13:04:18;;;;;;;8.80;2.53;;;;;;;7.16;56.04;100228.56;4932267;28;97532;-83
2022/02/05 13:06:44;;;;;;;6.53;2.17;;;;;;;7.11;55.42;100241.69;4943152;28;101642;-83
2022/02/05 13:09:23;;;;;;;6.33;1.40;;;;;;;6.92;55.20;100217.75;4930303;28;97209;-84
2022/02/05 13:11:59;;;;;;;4.40;2.10;;;;;;;6.95;55.37;100242.91;4918847;28;96977;-83
2022/02/05 13:14:37;;;;;;;7.07;1.77;;;;;;;6.93;54.97;100234.25;4934631;28;98261;-87
2022/02/05 13:17:05;;;;;;;3.33;1.50;;;;;;;6.96;55.14;100242.88;4952168;28;101783;-93
2022/02/05 13:19:51;;;;;;;5.83;2.00;;;;;;;7.07;55.09;100252.22;4932086;28;97160;-94
2022/02/05 13:28:04;;;;;;;4.43;1.90;;;;;;;7.07;54.87;100247.00;4936567;28;100488;-89
2022/02/05 13:41:07;;;;;;;6.40;1.97;;;;;;;6.93;54.46;100213.38;4925488;28;97193;-88
2022/02/05 13:43:44;;;;;;;11.23;1.87;;;;;;;7.03;53.49;100234.03;4938116;28;96823;-91
2022/02/05 13:46:14;;;;;;;6.67;2.87;;;;;;;6.94;53.50;100222.91;4907103;28;100194;-87
2022/02/05 13:48:40;;;;;;;6.00;1.50;;;;;;;6.88;52.47;100220.44;4920350;28;101637;-90
2022/02/05 13:51:07;;;;;;;5.50;1.30;;;;;;;6.92;52.95;100220.34;4937831;28;96668;-89
2022/02/05 13:53:33;;;;;;;9.07;1.83;;;;;;;6.93;52.93;100232.50;4921768;28;96917;-93
2022/02/05 13:56:05;;;;;;;10.67;1.87;;;;;;;7.07;53.25;100265.28;4931191;28;97539;-94
2022/02/05 13:58:38;;;;;;;6.20;1.93;;;;;;;7.04;53.79;100266.22;4940743;28;101242;-91
2022/02/05 14:01:04;;;;;;;8.63;2.10;;;;;;;7.07;54.74;100275.72;4941223;28;96741;-90
2022/02/05 14:03:32;;;;;;;7.03;2.67;;;;;;;7.12;54.92;100277.34;4956948;28;96820;-91
2022/02/05 14:06:01;;;;;;;12.93;2.43;;;;;;;7.15;55.15;100284.25;4940445;28;101222;-90
2022/02/05 14:08:29;;;;;;;6.17;2.23;;;;;;;6.94;55.74;100264.69;4957192;28;98077;-89
2022/02/05 14:10:56;;;;;;;5.53;1.80;;;;;;;7.10;55.75;100292.19;4956326;28;96755;-91
2022/02/05 14:13:22;;;;;;;4.97;1.70;;;;;;;6.79;56.19;100240.59;4944674;28;96754;-95
2022/02/05 14:15:53;;;;;;;8.20;2.13;;;;;;;6.73;55.58;100229.44;4935072;28;101466;-90
2022/02/05 14:18:18;;;;;;;7.67;2.53;;;;;;;6.94;56.30;100268.13;4921257;28;101086;-88
2022/02/05 14:21:03;;;;;;;9.33;2.70;;;;;;;7.02;56.62;100257.56;4917886;28;97422;-89
2022/02/05 14:23:32;;;;;;;5.97;2.20;;;;;;;7.19;56.53;100285.94;4951132;28;98725;-86
2022/02/05 14:26:13;;;;;;;6.60;2.30;;;;;;;7.04;56.66;100263.63;4944675;28;98107;-90
2022/02/05 14:28:51;;;;;;;6.63;2.90;;;;;;;7.24;56.12;100298.00;4912789;28;101867;-83
2022/02/05 14:34:02;;;;;;;8.13;2.80;;;;;;;7.18;55.35;100294.63;4924995;28;98082;-90
2022/02/05 14:42:07;;;;;;;8.90;2.60;;;;;;;7.07;55.14;100281.81;4946116;28;97985;-89
2022/02/05 14:44:33;;;;;;;12.27;2.60;;;;;;;7.17;55.26;100300.75;4945746;28;97245;-87